首页
METAR-TAF:

METAR-TAF

机场 :

Baraboo Wisconsin Dells Airport

Baraboo / Wisconsin Dells, 威斯康辛州, 美国

纬度: 43-31-19N, 经度: 089-46-15W, 海拔: 298米

当前天气观测

该预报发布于20分钟前的21:55 UTC
风速7节,风向东转东北
温度 27°C
湿度 42%
气压 1018 hPa
能見度: 16.1公里
散云层高于6000英尺
散云层高于7500英尺
阴天层高于8500英尺

METAR: KDLL 142155Z AUTO 07007KT 10SM SCT060 SCT075 OVC085 27/13 A3006 RMK AO2 T02680132

时间: 17:15 (22:15 UTC)


TAF: 丢失

超过4000个机场的气象观测和天气预报(METAR&TAF报告)。

可查询的气象台以黄色和红色小点在地图上表示。

将鼠标移到小点上方,可查看气象台名称。

然后点击查看天气观测和预报。

如需切换地图:点击带黑十字的绿色按钮放大地图;点击带横线的绿色按钮缩小地图;或者点击绿色箭头查看邻近地区的地图。


METAR-TAF: